sensor_id;sensor_type;location;lat;lon;timestamp;temperature;humidity
1778;DHT22;886;50.082;8.222;2022-11-28T00:01:45;7.50;99.90
1778;DHT22;886;50.082;8.222;2022-11-28T00:04:13;7.40;99.90
1778;DHT22;886;50.082;8.222;2022-11-28T00:06:45;7.30;99.90
1778;DHT22;886;50.082;8.222;2022-11-28T00:09:15;7.30;99.90
1778;DHT22;886;50.082;8.222;2022-11-28T00:11:44;7.20;99.90
1778;DHT22;886;50.082;8.222;2022-11-28T00:14:15;7.20;99.90
1778;DHT22;886;50.082;8.222;2022-11-28T00:16:43;7.40;99.90
1778;DHT22;886;50.082;8.222;2022-11-28T00:19:11;7.30;99.90
1778;DHT22;886;50.082;8.222;2022-11-28T00:21:39;7.10;99.90
1778;DHT22;886;50.082;8.222;2022-11-28T00:24:07;7.20;99.90
1778;DHT22;886;50.082;8.222;2022-11-28T00:26:37;7.20;99.90
1778;DHT22;886;50.082;8.222;2022-11-28T00:29:07;7.20;99.90
1778;DHT22;886;50.082;8.222;2022-11-28T00:31:38;7.10;99.90
1778;DHT22;886;50.082;8.222;2022-11-28T00:34:09;7.10;99.90
1778;DHT22;886;50.082;8.222;2022-11-28T00:36:37;7.00;99.90
1778;DHT22;886;50.082;8.222;2022-11-28T00:39:04;7.00;99.90
1778;DHT22;886;50.082;8.222;2022-11-28T00:41:32;6.90;99.90
1778;DHT22;886;50.082;8.222;2022-11-28T00:44:05;7.00;99.90
1778;DHT22;886;50.082;8.222;2022-11-28T00:46:40;7.00;99.90
1778;DHT22;886;50.082;8.222;2022-11-28T00:49:10;7.00;99.90
1778;DHT22;886;50.082;8.222;2022-11-28T00:51:37;7.10;99.90
1778;DHT22;886;50.082;8.222;2022-11-28T00:54:10;7.10;99.90
1778;DHT22;886;50.082;8.222;2022-11-28T00:56:38;7.10;99.90
1778;DHT22;886;50.082;8.222;2022-11-28T00:59:06;7.10;99.90
1778;DHT22;886;50.082;8.222;2022-11-28T01:01:35;7.10;99.90
1778;DHT22;886;50.082;8.222;2022-11-28T01:04:10;7.10;99.90
1778;DHT22;886;50.082;8.222;2022-11-28T01:06:40;7.10;99.90
1778;DHT22;886;50.082;8.222;2022-11-28T01:09:10;7.00;99.90
1778;DHT22;886;50.082;8.222;2022-11-28T01:11:41;6.90;99.90
1778;DHT22;886;50.082;8.222;2022-11-28T01:14:09;6.90;99.90
1778;DHT22;886;50.082;8.222;2022-11-28T01:16:39;7.00;99.90
1778;DHT22;886;50.082;8.222;2022-11-28T01:19:10;7.00;99.90
1778;DHT22;886;50.082;8.222;2022-11-28T01:21:44;7.00;99.90
1778;DHT22;886;50.082;8.222;2022-11-28T01:24:11;6.90;99.90
1778;DHT22;886;50.082;8.222;2022-11-28T01:26:41;6.80;99.90
1778;DHT22;886;50.082;8.222;2022-11-28T01:29:11;6.80;99.90
1778;DHT22;886;50.082;8.222;2022-11-28T01:31:38;6.80;99.90
1778;DHT22;886;50.082;8.222;2022-11-28T01:34:05;6.80;99.90
1778;DHT22;886;50.082;8.222;2022-11-28T01:36:40;6.80;99.90
1778;DHT22;886;50.082;8.222;2022-11-28T01:39:10;6.80;99.90
1778;DHT22;886;50.082;8.222;2022-11-28T01:41:37;6.90;99.90
1778;DHT22;886;50.082;8.222;2022-11-28T01:45:03;6.90;99.90
1778;DHT22;886;50.082;8.222;2022-11-28T01:47:14;7.00;99.90
1778;DHT22;886;50.082;8.222;2022-11-28T01:49:44;6.90;99.90
1778;DHT22;886;50.082;8.222;2022-11-28T01:52:19;6.90;99.90
1778;DHT22;886;50.082;8.222;2022-11-28T01:54:56;6.90;99.90
1778;DHT22;886;50.082;8.222;2022-11-28T01:57:29;6.90;99.90
1778;DHT22;886;50.082;8.222;2022-11-28T01:59:58;6.90;99.90
1778;DHT22;886;50.082;8.222;2022-11-28T02:02:33;6.80;99.90
1778;DHT22;886;50.082;8.222;2022-11-28T02:05:03;6.80;99.90
1778;DHT22;886;50.082;8.222;2022-11-28T02:07:35;6.70;99.90
1778;DHT22;886;50.082;8.222;2022-11-28T02:10:06;6.60;99.90
1778;DHT22;886;50.082;8.222;2022-11-28T02:16:10;6.60;99.90
1778;DHT22;886;50.082;8.222;2022-11-28T02:19:00;6.60;99.90
1778;DHT22;886;50.082;8.222;2022-11-28T02:21:47;6.60;99.90
1778;DHT22;886;50.082;8.222;2022-11-28T02:28:10;6.50;99.90
1778;DHT22;886;50.082;8.222;2022-11-28T02:31:11;6.50;99.90
1778;DHT22;886;50.082;8.222;2022-11-28T02:33:54;6.60;99.90
1778;DHT22;886;50.082;8.222;2022-11-28T02:36:27;6.60;99.90
1778;DHT22;886;50.082;8.222;2022-11-28T02:39:04;6.60;99.90
1778;DHT22;886;50.082;8.222;2022-11-28T02:41:42;6.70;99.90
1778;DHT22;886;50.082;8.222;2022-11-28T02:44:14;6.70;99.90
1778;DHT22;886;50.082;8.222;2022-11-28T02:46:48;6.70;99.90
1778;DHT22;886;50.082;8.222;2022-11-28T02:49:35;6.70;99.90
1778;DHT22;886;50.082;8.222;2022-11-28T02:52:08;6.80;99.90
1778;DHT22;886;50.082;8.222;2022-11-28T02:54:45;6.70;99.90
1778;DHT22;886;50.082;8.222;2022-11-28T02:57:13;6.60;99.90
1778;DHT22;886;50.082;8.222;2022-11-28T02:59:52;6.70;99.90
1778;DHT22;886;50.082;8.222;2022-11-28T03:02:24;6.70;99.90
1778;DHT22;886;50.082;8.222;2022-11-28T03:05:00;6.70;99.90
1778;DHT22;886;50.082;8.222;2022-11-28T03:07:48;6.70;99.90
1778;DHT22;886;50.082;8.222;2022-11-28T03:10:26;6.70;99.90
1778;DHT22;886;50.082;8.222;2022-11-28T03:13:06;6.70;99.90
1778;DHT22;886;50.082;8.222;2022-11-28T03:15:53;6.70;99.90
1778;DHT22;886;50.082;8.222;2022-11-28T03:18:31;6.70;99.90
1778;DHT22;886;50.082;8.222;2022-11-28T03:21:09;6.70;99.90
1778;DHT22;886;50.082;8.222;2022-11-28T03:23:51;6.60;99.90
1778;DHT22;886;50.082;8.222;2022-11-28T03:26:31;6.50;99.90
1778;DHT22;886;50.082;8.222;2022-11-28T03:29:10;6.60;99.90
1778;DHT22;886;50.082;8.222;2022-11-28T03:31:41;6.50;99.90
1778;DHT22;886;50.082;8.222;2022-11-28T03:34:15;6.40;99.90
1778;DHT22;886;50.082;8.222;2022-11-28T03:36:49;6.40;99.90
1778;DHT22;886;50.082;8.222;2022-11-28T03:39:19;6.40;99.90
1778;DHT22;886;50.082;8.222;2022-11-28T03:41:51;6.40;99.90
1778;DHT22;886;50.082;8.222;2022-11-28T03:44:22;6.50;99.90
1778;DHT22;886;50.082;8.222;2022-11-28T03:47:12;6.40;99.90
1778;DHT22;886;50.082;8.222;2022-11-28T03:49:45;6.50;99.90
1778;DHT22;886;50.082;8.222;2022-11-28T03:52:22;6.50;99.90
1778;DHT22;886;50.082;8.222;2022-11-28T03:54:53;6.50;99.90
1778;DHT22;886;50.082;8.222;2022-11-28T03:57:26;6.50;99.90
1778;DHT22;886;50.082;8.222;2022-11-28T03:59:59;6.40;99.90
1778;DHT22;886;50.082;8.222;2022-11-28T04:02:35;6.40;99.90
1778;DHT22;886;50.082;8.222;2022-11-28T04:05:10;6.40;99.90
1778;DHT22;886;50.082;8.222;2022-11-28T04:07:52;6.40;99.90
1778;DHT22;886;50.082;8.222;2022-11-28T04:10:27;6.40;99.90
1778;DHT22;886;50.082;8.222;2022-11-28T04:13:03;6.40;99.90
1778;DHT22;886;50.082;8.222;2022-11-28T04:15:43;6.50;99.90
1778;DHT22;886;50.082;8.222;2022-11-28T04:18:19;6.40;99.90
1778;DHT22;886;50.082;8.222;2022-11-28T04:21:01;6.40;99.90
1778;DHT22;886;50.082;8.222;2022-11-28T04:23:36;6.40;99.90
1778;DHT22;886;50.082;8.222;2022-11-28T04:26:10;6.40;99.90
1778;DHT22;886;50.082;8.222;2022-11-28T04:28:40;6.50;99.90
1778;DHT22;886;50.082;8.222;2022-11-28T04:31:11;6.50;99.90
1778;DHT22;886;50.082;8.222;2022-11-28T04:33:42;6.40;99.90
1778;DHT22;886;50.082;8.222;2022-11-28T04:36:18;6.40;99.90
1778;DHT22;886;50.082;8.222;2022-11-28T04:38:47;6.30;99.90
1778;DHT22;886;50.082;8.222;2022-11-28T04:41:25;6.30;99.90
1778;DHT22;886;50.082;8.222;2022-11-28T04:43:58;6.40;99.90
1778;DHT22;886;50.082;8.222;2022-11-28T04:46:31;6.40;99.90
1778;DHT22;886;50.082;8.222;2022-11-28T04:49:05;6.40;99.90
1778;DHT22;886;50.082;8.222;2022-11-28T04:51:43;6.20;99.90
1778;DHT22;886;50.082;8.222;2022-11-28T04:54:19;6.20;99.90
1778;DHT22;886;50.082;8.222;2022-11-28T04:56:53;6.30;99.90
1778;DHT22;886;50.082;8.222;2022-11-28T04:59:30;6.40;99.90
1778;DHT22;886;50.082;8.222;2022-11-28T05:02:01;6.40;99.90
1778;DHT22;886;50.082;8.222;2022-11-28T05:04:33;6.50;99.90
1778;DHT22;886;50.082;8.222;2022-11-28T05:07:05;6.50;99.90
1778;DHT22;886;50.082;8.222;2022-11-28T05:09:37;6.40;99.90
1778;DHT22;886;50.082;8.222;2022-11-28T05:12:05;6.40;99.90
1778;DHT22;886;50.082;8.222;2022-11-28T05:14:32;6.50;99.90
1778;DHT22;886;50.082;8.222;2022-11-28T05:16:59;6.50;99.90
1778;DHT22;886;50.082;8.222;2022-11-28T05:19:33;6.40;99.90
1778;DHT22;886;50.082;8.222;2022-11-28T05:22:00;6.40;99.90
1778;DHT22;886;50.082;8.222;2022-11-28T05:24:27;6.40;99.90
1778;DHT22;886;50.082;8.222;2022-11-28T05:26:59;6.40;99.90
1778;DHT22;886;50.082;8.222;2022-11-28T05:29:26;6.40;99.90
1778;DHT22;886;50.082;8.222;2022-11-28T05:31:53;6.30;99.90
1778;DHT22;886;50.082;8.222;2022-11-28T05:34:20;6.40;99.90
1778;DHT22;886;50.082;8.222;2022-11-28T05:36:47;6.40;99.90
1778;DHT22;886;50.082;8.222;2022-11-28T05:39:28;6.40;99.90
1778;DHT22;886;50.082;8.222;2022-11-28T05:41:58;6.50;99.90
1778;DHT22;886;50.082;8.222;2022-11-28T05:44:25;6.60;99.90
1778;DHT22;886;50.082;8.222;2022-11-28T05:46:59;6.60;99.90
1778;DHT22;886;50.082;8.222;2022-11-28T05:49:26;6.60;99.90
1778;DHT22;886;50.082;8.222;2022-11-28T05:52:00;6.60;99.90
1778;DHT22;886;50.082;8.222;2022-11-28T05:54:27;6.60;99.90
1778;DHT22;886;50.082;8.222;2022-11-28T05:56:56;6.70;99.90
1778;DHT22;886;50.082;8.222;2022-11-28T05:59:24;6.70;99.90
1778;DHT22;886;50.082;8.222;2022-11-28T06:01:54;6.70;99.90
1778;DHT22;886;50.082;8.222;2022-11-28T06:04:21;6.70;99.90
1778;DHT22;886;50.082;8.222;2022-11-28T06:06:49;6.70;99.90
1778;DHT22;886;50.082;8.222;2022-11-28T06:09:16;6.60;99.90
1778;DHT22;886;50.082;8.222;2022-11-28T06:11:50;6.70;99.90
1778;DHT22;886;50.082;8.222;2022-11-28T06:14:19;6.60;99.90
1778;DHT22;886;50.082;8.222;2022-11-28T06:16:48;6.70;99.90
1778;DHT22;886;50.082;8.222;2022-11-28T06:19:15;6.70;99.90
1778;DHT22;886;50.082;8.222;2022-11-28T06:21:42;6.70;99.90
1778;DHT22;886;50.082;8.222;2022-11-28T06:24:09;6.60;99.90
1778;DHT22;886;50.082;8.222;2022-11-28T06:26:36;6.60;99.90
1778;DHT22;886;50.082;8.222;2022-11-28T06:29:06;6.60;99.90
1778;DHT22;886;50.082;8.222;2022-11-28T06:31:33;6.60;99.90
1778;DHT22;886;50.082;8.222;2022-11-28T06:34:02;6.50;99.90
1778;DHT22;886;50.082;8.222;2022-11-28T06:36:29;6.60;99.90
1778;DHT22;886;50.082;8.222;2022-11-28T06:38:56;6.60;99.90
1778;DHT22;886;50.082;8.222;2022-11-28T06:41:25;6.60;99.90
1778;DHT22;886;50.082;8.222;2022-11-28T06:43:55;6.50;99.90
1778;DHT22;886;50.082;8.222;2022-11-28T06:46:22;6.60;99.90
1778;DHT22;886;50.082;8.222;2022-11-28T06:48:55;6.50;99.90
1778;DHT22;886;50.082;8.222;2022-11-28T06:51:24;6.50;99.90
1778;DHT22;886;50.082;8.222;2022-11-28T06:53:51;6.50;99.90
1778;DHT22;886;50.082;8.222;2022-11-28T06:56:22;6.60;99.90
1778;DHT22;886;50.082;8.222;2022-11-28T06:58:55;6.50;99.90
1778;DHT22;886;50.082;8.222;2022-11-28T07:01:25;6.50;99.90
1778;DHT22;886;50.082;8.222;2022-11-28T07:03:53;6.50;99.90
1778;DHT22;886;50.082;8.222;2022-11-28T07:06:22;6.50;99.90
1778;DHT22;886;50.082;8.222;2022-11-28T07:08:51;6.50;99.90
1778;DHT22;886;50.082;8.222;2022-11-28T07:11:29;6.40;99.90
1778;DHT22;886;50.082;8.222;2022-11-28T07:14:03;6.40;99.90
1778;DHT22;886;50.082;8.222;2022-11-28T07:16:40;6.40;99.90
1778;DHT22;886;50.082;8.222;2022-11-28T07:19:13;6.30;99.90
1778;DHT22;886;50.082;8.222;2022-11-28T07:21:53;6.30;99.90
1778;DHT22;886;50.082;8.222;2022-11-28T07:24:21;6.20;99.90
1778;DHT22;886;50.082;8.222;2022-11-28T07:26:48;6.30;99.90
1778;DHT22;886;50.082;8.222;2022-11-28T07:29:17;6.40;99.90
1778;DHT22;886;50.082;8.222;2022-11-28T07:31:47;6.40;99.90
1778;DHT22;886;50.082;8.222;2022-11-28T07:34:15;6.40;99.90
1778;DHT22;886;50.082;8.222;2022-11-28T07:36:42;6.20;99.90
1778;DHT22;886;50.082;8.222;2022-11-28T07:39:15;6.30;99.90
1778;DHT22;886;50.082;8.222;2022-11-28T07:41:43;6.40;99.90
1778;DHT22;886;50.082;8.222;2022-11-28T07:44:17;6.40;99.90
1778;DHT22;886;50.082;8.222;2022-11-28T07:46:53;6.40;99.90
1778;DHT22;886;50.082;8.222;2022-11-28T07:49:20;6.40;99.90
1778;DHT22;886;50.082;8.222;2022-11-28T07:51:50;6.30;99.90
1778;DHT22;886;50.082;8.222;2022-11-28T07:54:25;6.30;99.90
1778;DHT22;886;50.082;8.222;2022-11-28T07:56:58;6.40;99.90
1778;DHT22;886;50.082;8.222;2022-11-28T07:59:44;6.50;99.90
1778;DHT22;886;50.082;8.222;2022-11-28T08:02:17;6.50;99.90
1778;DHT22;886;50.082;8.222;2022-11-28T08:04:47;6.50;99.90
1778;DHT22;886;50.082;8.222;2022-11-28T08:07:23;6.50;99.90
1778;DHT22;886;50.082;8.222;2022-11-28T08:09:52;6.50;99.90
1778;DHT22;886;50.082;8.222;2022-11-28T08:12:22;6.60;99.90
1778;DHT22;886;50.082;8.222;2022-11-28T08:14:49;6.60;99.90
1778;DHT22;886;50.082;8.222;2022-11-28T08:17:19;6.60;99.90
1778;DHT22;886;50.082;8.222;2022-11-28T08:19:46;6.50;99.90
1778;DHT22;886;50.082;8.222;2022-11-28T08:22:13;6.60;99.90
1778;DHT22;886;50.082;8.222;2022-11-28T08:24:53;6.60;99.90
1778;DHT22;886;50.082;8.222;2022-11-28T08:27:23;6.60;99.90
1778;DHT22;886;50.082;8.222;2022-11-28T08:29:50;6.70;99.90
1778;DHT22;886;50.082;8.222;2022-11-28T08:32:20;6.60;99.90
1778;DHT22;886;50.082;8.222;2022-11-28T08:34:54;6.60;99.90
1778;DHT22;886;50.082;8.222;2022-11-28T08:37:22;6.60;99.90
1778;DHT22;886;50.082;8.222;2022-11-28T08:39:52;6.70;99.90
1778;DHT22;886;50.082;8.222;2022-11-28T08:42:22;6.80;99.90
1778;DHT22;886;50.082;8.222;2022-11-28T08:44:50;6.70;99.90
1778;DHT22;886;50.082;8.222;2022-11-28T08:47:18;6.70;99.90
1778;DHT22;886;50.082;8.222;2022-11-28T08:49:47;6.70;99.90
1778;DHT22;886;50.082;8.222;2022-11-28T08:52:15;6.70;99.90
1778;DHT22;886;50.082;8.222;2022-11-28T08:54:46;6.60;99.90
1778;DHT22;886;50.082;8.222;2022-11-28T08:57:14;6.70;99.90
1778;DHT22;886;50.082;8.222;2022-11-28T08:59:41;6.80;99.90
1778;DHT22;886;50.082;8.222;2022-11-28T09:02:12;6.90;99.90
1778;DHT22;886;50.082;8.222;2022-11-28T09:04:42;7.00;99.90
1778;DHT22;886;50.082;8.222;2022-11-28T09:07:12;7.00;99.90
1778;DHT22;886;50.082;8.222;2022-11-28T09:09:45;7.00;99.90
1778;DHT22;886;50.082;8.222;2022-11-28T09:12:16;7.10;99.90
1778;DHT22;886;50.082;8.222;2022-11-28T09:14:52;7.10;99.90
1778;DHT22;886;50.082;8.222;2022-11-28T09:17:28;7.10;99.90
1778;DHT22;886;50.082;8.222;2022-11-28T09:19:55;7.00;99.90
1778;DHT22;886;50.082;8.222;2022-11-28T09:22:22;6.90;99.90
1778;DHT22;886;50.082;8.222;2022-11-28T09:24:49;7.00;99.90
1778;DHT22;886;50.082;8.222;2022-11-28T09:27:20;6.90;99.90
1778;DHT22;886;50.082;8.222;2022-11-28T09:29:47;7.00;99.90
1778;DHT22;886;50.082;8.222;2022-11-28T09:32:17;7.10;99.90
1778;DHT22;886;50.082;8.222;2022-11-28T09:34:44;7.10;99.90
1778;DHT22;886;50.082;8.222;2022-11-28T09:37:11;7.10;99.90
1778;DHT22;886;50.082;8.222;2022-11-28T09:39:41;7.10;99.90
1778;DHT22;886;50.082;8.222;2022-11-28T09:42:36;7.20;99.90
1778;DHT22;886;50.082;8.222;2022-11-28T09:45:11;7.20;99.90
1778;DHT22;886;50.082;8.222;2022-11-28T09:47:49;7.20;99.90
1778;DHT22;886;50.082;8.222;2022-11-28T09:50:30;7.20;99.90
1778;DHT22;886;50.082;8.222;2022-11-28T09:53:14;7.20;99.90
1778;DHT22;886;50.082;8.222;2022-11-28T09:55:49;7.30;99.90
1778;DHT22;886;50.082;8.222;2022-11-28T09:58:25;7.40;99.90
1778;DHT22;886;50.082;8.222;2022-11-28T10:01:02;7.30;99.90
1778;DHT22;886;50.082;8.222;2022-11-28T10:03:52;7.40;99.90
1778;DHT22;886;50.082;8.222;2022-11-28T10:06:26;7.40;99.90
1778;DHT22;886;50.082;8.222;2022-11-28T10:09:12;7.40;99.90
1778;DHT22;886;50.082;8.222;2022-11-28T10:12:01;7.40;99.90
1778;DHT22;886;50.082;8.222;2022-11-28T10:14:56;7.50;99.90
1778;DHT22;886;50.082;8.222;2022-11-28T10:17:55;7.40;99.90
1778;DHT22;886;50.082;8.222;2022-11-28T10:20:33;7.50;99.90
1778;DHT22;886;50.082;8.222;2022-11-28T10:23:15;7.50;99.90
1778;DHT22;886;50.082;8.222;2022-11-28T10:25:52;7.50;99.90
1778;DHT22;886;50.082;8.222;2022-11-28T10:28:25;7.60;99.90
1778;DHT22;886;50.082;8.222;2022-11-28T10:31:00;7.60;99.90
1778;DHT22;886;50.082;8.222;2022-11-28T10:33:38;7.50;99.90
1778;DHT22;886;50.082;8.222;2022-11-28T10:36:21;7.40;99.90
1778;DHT22;886;50.082;8.222;2022-11-28T10:38:50;7.40;99.90
1778;DHT22;886;50.082;8.222;2022-11-28T10:41:27;7.30;99.90
1778;DHT22;886;50.082;8.222;2022-11-28T10:44:02;7.40;99.90
1778;DHT22;886;50.082;8.222;2022-11-28T10:46:47;7.40;99.90
1778;DHT22;886;50.082;8.222;2022-11-28T10:49:32;7.30;99.90
1778;DHT22;886;50.082;8.222;2022-11-28T10:52:10;7.40;99.90
1778;DHT22;886;50.082;8.222;2022-11-28T10:57:46;7.50;99.90
1778;DHT22;886;50.082;8.222;2022-11-28T11:00:34;7.30;99.90
1778;DHT22;886;50.082;8.222;2022-11-28T11:03:24;7.30;99.90
1778;DHT22;886;50.082;8.222;2022-11-28T11:05:52;7.30;99.90
1778;DHT22;886;50.082;8.222;2022-11-28T11:08:22;7.40;99.90
1778;DHT22;886;50.082;8.222;2022-11-28T11:10:55;7.50;99.90
1778;DHT22;886;50.082;8.222;2022-11-28T11:13:27;7.50;99.90
1778;DHT22;886;50.082;8.222;2022-11-28T11:16:03;7.50;99.90
1778;DHT22;886;50.082;8.222;2022-11-28T11:18:49;7.50;99.90
1778;DHT22;886;50.082;8.222;2022-11-28T11:21:19;7.50;99.90
1778;DHT22;886;50.082;8.222;2022-11-28T11:24:11;7.50;99.90
1778;DHT22;886;50.082;8.222;2022-11-28T11:26:38;7.50;99.90
1778;DHT22;886;50.082;8.222;2022-11-28T11:29:32;7.60;99.90
1778;DHT22;886;50.082;8.222;2022-11-28T11:32:17;7.60;99.90
1778;DHT22;886;50.082;8.222;2022-11-28T11:34:55;7.60;99.90
1778;DHT22;886;50.082;8.222;2022-11-28T11:37:40;7.60;99.90
1778;DHT22;886;50.082;8.222;2022-11-28T11:40:21;7.60;99.90
1778;DHT22;886;50.082;8.222;2022-11-28T11:42:56;7.50;99.90
1778;DHT22;886;50.082;8.222;2022-11-28T11:45:30;7.60;99.90
1778;DHT22;886;50.082;8.222;2022-11-28T11:47:59;7.60;99.90
1778;DHT22;886;50.082;8.222;2022-11-28T11:50:29;7.60;99.90
1778;DHT22;886;50.082;8.222;2022-11-28T11:53:12;7.70;99.90
1778;DHT22;886;50.082;8.222;2022-11-28T11:55:48;7.70;99.90
1778;DHT22;886;50.082;8.222;2022-11-28T11:58:19;7.90;99.90
1778;DHT22;886;50.082;8.222;2022-11-28T12:00:53;7.90;99.90
1778;DHT22;886;50.082;8.222;2022-11-28T12:03:25;8.00;99.90
1778;DHT22;886;50.082;8.222;2022-11-28T12:06:03;8.00;99.90
1778;DHT22;886;50.082;8.222;2022-11-28T12:08:44;7.90;99.90
1778;DHT22;886;50.082;8.222;2022-11-28T12:11:18;7.80;99.90
1778;DHT22;886;50.082;8.222;2022-11-28T12:13:49;7.80;99.90
1778;DHT22;886;50.082;8.222;2022-11-28T12:16:33;7.70;99.90
1778;DHT22;886;50.082;8.222;2022-11-28T12:19:18;7.70;99.90
1778;DHT22;886;50.082;8.222;2022-11-28T12:22:04;7.80;99.90
1778;DHT22;886;50.082;8.222;2022-11-28T12:24:41;7.70;99.90
1778;DHT22;886;50.082;8.222;2022-11-28T12:27:26;7.80;99.90
1778;DHT22;886;50.082;8.222;2022-11-28T12:30:23;7.70;99.90
1778;DHT22;886;50.082;8.222;2022-11-28T12:33:12;7.80;99.90
1778;DHT22;886;50.082;8.222;2022-11-28T12:35:58;7.80;99.90
1778;DHT22;886;50.082;8.222;2022-11-28T12:38:43;7.70;99.90
1778;DHT22;886;50.082;8.222;2022-11-28T12:41:43;7.80;99.90
1778;DHT22;886;50.082;8.222;2022-11-28T12:44:30;7.70;99.90
1778;DHT22;886;50.082;8.222;2022-11-28T12:47:14;7.70;99.90
1778;DHT22;886;50.082;8.222;2022-11-28T12:49:56;7.80;99.90
1778;DHT22;886;50.082;8.222;2022-11-28T12:52:33;7.70;99.90
1778;DHT22;886;50.082;8.222;2022-11-28T12:55:17;7.70;99.90
1778;DHT22;886;50.082;8.222;2022-11-28T12:57:53;7.80;99.90
1778;DHT22;886;50.082;8.222;2022-11-28T13:00:32;7.90;99.90
1778;DHT22;886;50.082;8.222;2022-11-28T13:03:08;7.80;99.90
1778;DHT22;886;50.082;8.222;2022-11-28T13:05:47;7.70;99.90
1778;DHT22;886;50.082;8.222;2022-11-28T13:08:43;7.70;99.90
1778;DHT22;886;50.082;8.222;2022-11-28T13:11:44;7.80;99.90
1778;DHT22;886;50.082;8.222;2022-11-28T13:14:30;7.70;99.90
1778;DHT22;886;50.082;8.222;2022-11-28T13:17:12;7.70;99.90
1778;DHT22;886;50.082;8.222;2022-11-28T13:19:51;7.70;99.90
1778;DHT22;886;50.082;8.222;2022-11-28T13:22:26;7.70;99.90
1778;DHT22;886;50.082;8.222;2022-11-28T13:25:15;7.80;99.90
1778;DHT22;886;50.082;8.222;2022-11-28T13:27:52;7.80;99.90
1778;DHT22;886;50.082;8.222;2022-11-28T13:30:38;7.70;99.90
1778;DHT22;886;50.082;8.222;2022-11-28T13:33:23;7.70;99.90
1778;DHT22;886;50.082;8.222;2022-11-28T13:35:59;7.70;99.90
1778;DHT22;886;50.082;8.222;2022-11-28T13:38:39;7.70;99.90
1778;DHT22;886;50.082;8.222;2022-11-28T13:41:44;7.70;99.90
1778;DHT22;886;50.082;8.222;2022-11-28T13:45:00;7.70;99.90
1778;DHT22;886;50.082;8.222;2022-11-28T13:47:32;7.70;99.90
1778;DHT22;886;50.082;8.222;2022-11-28T13:50:38;7.60;99.90
1778;DHT22;886;50.082;8.222;2022-11-28T13:53:21;7.60;99.90
1778;DHT22;886;50.082;8.222;2022-11-28T13:55:51;7.60;99.90
1778;DHT22;886;50.082;8.222;2022-11-28T13:58:22;7.60;99.90
1778;DHT22;886;50.082;8.222;2022-11-28T14:01:07;7.70;99.90
1778;DHT22;886;50.082;8.222;2022-11-28T14:03:44;7.80;99.90
1778;DHT22;886;50.082;8.222;2022-11-28T14:06:18;7.90;99.90
1778;DHT22;886;50.082;8.222;2022-11-28T14:09:03;8.00;99.90
1778;DHT22;886;50.082;8.222;2022-11-28T14:11:53;7.90;99.90
1778;DHT22;886;50.082;8.222;2022-11-28T14:14:44;7.90;99.90
1778;DHT22;886;50.082;8.222;2022-11-28T14:17:46;7.90;99.90
1778;DHT22;886;50.082;8.222;2022-11-28T14:20:31;8.00;99.90
1778;DHT22;886;50.082;8.222;2022-11-28T14:23:14;8.00;99.90
1778;DHT22;886;50.082;8.222;2022-11-28T14:25:47;8.00;99.90
1778;DHT22;886;50.082;8.222;2022-11-28T14:28:20;8.00;99.90
1778;DHT22;886;50.082;8.222;2022-11-28T14:30:50;7.90;99.90
1778;DHT22;886;50.082;8.222;2022-11-28T14:33:22;8.00;99.90
1778;DHT22;886;50.082;8.222;2022-11-28T14:36:23;8.00;99.90
1778;DHT22;886;50.082;8.222;2022-11-28T14:39:06;8.10;99.90
1778;DHT22;886;50.082;8.222;2022-11-28T14:45:42;8.00;99.90
1778;DHT22;886;50.082;8.222;2022-11-28T14:48:26;8.10;99.90
1778;DHT22;886;50.082;8.222;2022-11-28T14:50:57;8.10;99.90
1778;DHT22;886;50.082;8.222;2022-11-28T14:53:44;8.10;99.90
1778;DHT22;886;50.082;8.222;2022-11-28T14:56:29;8.10;99.90
1778;DHT22;886;50.082;8.222;2022-11-28T14:58:59;8.10;99.90
1778;DHT22;886;50.082;8.222;2022-11-28T15:01:39;8.10;99.90
1778;DHT22;886;50.082;8.222;2022-11-28T15:04:29;8.10;99.90
1778;DHT22;886;50.082;8.222;2022-11-28T15:07:30;8.10;99.90
1778;DHT22;886;50.082;8.222;2022-11-28T15:10:08;8.10;99.90
1778;DHT22;886;50.082;8.222;2022-11-28T15:12:48;8.10;99.90
1778;DHT22;886;50.082;8.222;2022-11-28T15:15:20;8.10;99.90
1778;DHT22;886;50.082;8.222;2022-11-28T15:17:49;8.10;99.90
1778;DHT22;886;50.082;8.222;2022-11-28T15:20:25;8.10;99.90
1778;DHT22;886;50.082;8.222;2022-11-28T15:22:54;8.10;99.90
1778;DHT22;886;50.082;8.222;2022-11-28T15:25:23;8.10;99.90
1778;DHT22;886;50.082;8.222;2022-11-28T15:27:51;8.10;99.90
1778;DHT22;886;50.082;8.222;2022-11-28T15:30:22;8.10;99.90
1778;DHT22;886;50.082;8.222;2022-11-28T15:32:54;8.10;99.90
1778;DHT22;886;50.082;8.222;2022-11-28T15:35:26;8.10;99.90
1778;DHT22;886;50.082;8.222;2022-11-28T15:37:54;8.10;99.90
1778;DHT22;886;50.082;8.222;2022-11-28T15:40:30;8.10;99.90
1778;DHT22;886;50.082;8.222;2022-11-28T15:42:59;8.10;99.90
1778;DHT22;886;50.082;8.222;2022-11-28T15:48:34;8.10;99.90
1778;DHT22;886;50.082;8.222;2022-11-28T15:51:27;8.10;99.90
1778;DHT22;886;50.082;8.222;2022-11-28T15:53:55;8.00;99.90
1778;DHT22;886;50.082;8.222;2022-11-28T15:56:22;8.00;99.90
1778;DHT22;886;50.082;8.222;2022-11-28T15:58:50;8.10;99.90
1778;DHT22;886;50.082;8.222;2022-11-28T16:01:21;8.10;99.90
1778;DHT22;886;50.082;8.222;2022-11-28T16:03:52;8.10;99.90
1778;DHT22;886;50.082;8.222;2022-11-28T16:06:24;8.10;99.90
1778;DHT22;886;50.082;8.222;2022-11-28T16:08:58;8.10;99.90
1778;DHT22;886;50.082;8.222;2022-11-28T16:11:28;8.10;99.90
1778;DHT22;886;50.082;8.222;2022-11-28T16:13:59;8.10;99.90
1778;DHT22;886;50.082;8.222;2022-11-28T16:16:33;8.20;99.90
1778;DHT22;886;50.082;8.222;2022-11-28T16:19:07;8.10;99.90
1778;DHT22;886;50.082;8.222;2022-11-28T16:21:50;8.10;99.90
1778;DHT22;886;50.082;8.222;2022-11-28T16:24:29;8.10;99.90
1778;DHT22;886;50.082;8.222;2022-11-28T16:27:05;8.10;99.90
1778;DHT22;886;50.082;8.222;2022-11-28T16:29:33;8.10;99.90
1778;DHT22;886;50.082;8.222;2022-11-28T16:32:06;8.10;99.90
1778;DHT22;886;50.082;8.222;2022-11-28T16:34:44;8.10;99.90
1778;DHT22;886;50.082;8.222;2022-11-28T16:37:19;8.20;99.90
1778;DHT22;886;50.082;8.222;2022-11-28T16:39:46;8.20;99.90
1778;DHT22;886;50.082;8.222;2022-11-28T16:42:28;8.20;99.90
1778;DHT22;886;50.082;8.222;2022-11-28T16:44:55;8.20;99.90
1778;DHT22;886;50.082;8.222;2022-11-28T16:47:24;8.20;99.90
1778;DHT22;886;50.082;8.222;2022-11-28T16:50:15;8.20;99.90
1778;DHT22;886;50.082;8.222;2022-11-28T16:52:51;8.20;99.90
1778;DHT22;886;50.082;8.222;2022-11-28T16:55:40;8.20;99.90
1778;DHT22;886;50.082;8.222;2022-11-28T16:58:15;8.20;99.90
1778;DHT22;886;50.082;8.222;2022-11-28T17:00:46;8.20;99.90
1778;DHT22;886;50.082;8.222;2022-11-28T17:03:48;8.10;99.90
1778;DHT22;886;50.082;8.222;2022-11-28T17:06:24;8.10;99.90
1778;DHT22;886;50.082;8.222;2022-11-28T17:08:55;8.10;99.90
1778;DHT22;886;50.082;8.222;2022-11-28T17:11:25;8.20;99.90
1778;DHT22;886;50.082;8.222;2022-11-28T17:13:57;8.20;99.90
1778;DHT22;886;50.082;8.222;2022-11-28T17:16:29;8.20;99.90
1778;DHT22;886;50.082;8.222;2022-11-28T17:19:01;8.10;99.90
1778;DHT22;886;50.082;8.222;2022-11-28T17:21:35;8.10;99.90
1778;DHT22;886;50.082;8.222;2022-11-28T17:26:55;8.20;99.90
1778;DHT22;886;50.082;8.222;2022-11-28T17:29:22;8.20;99.90
1778;DHT22;886;50.082;8.222;2022-11-28T17:31:51;8.20;99.90
1778;DHT22;886;50.082;8.222;2022-11-28T17:34:22;8.10;99.90
1778;DHT22;886;50.082;8.222;2022-11-28T17:36:51;8.10;99.90
1778;DHT22;886;50.082;8.222;2022-11-28T17:39:19;8.10;99.90
1778;DHT22;886;50.082;8.222;2022-11-28T17:41:47;7.90;99.90
1778;DHT22;886;50.082;8.222;2022-11-28T17:44:18;7.90;99.90
1778;DHT22;886;50.082;8.222;2022-11-28T17:46:46;7.90;99.90